This is the latest recevied weather packets stored in our database for station/object WX6HNX-5. If no packets are shown the sender has not sent any weather packets the latest 1 day(s).
| Time | Temp. | Humidity | Pressure | Rain* | Wind** | Luminosity | Snow |
|---|---|---|---|---|---|---|---|
| 1778020202 | 18.33° C | 62% | 1014.4 hPa | 0 mm | 0 m/s | - | - |
| 1778019901 | 17.78° C | 63% | 1014.3 hPa | 0 mm | 0 m/s | - | - |
| 1778019603 | 17.78° C | 67% | 1014.3 hPa | 0 mm | 0 m/s | - | - |
| 1778019302 | 17.22° C | 69% | 1014.4 hPa | 0 mm | 0.89 m/s, 93° | - | - |
| 1778019002 | 17.22° C | 71% | 1014.4 hPa | 0 mm | 1.34 m/s, 79° | - | - |
| 1778018702 | 17.22° C | 69% | 1014.5 hPa | 0 mm | 2.68 m/s, 77° | - | - |
| 1778018401 | 17.22° C | 67% | 1014.5 hPa | 0 mm | 2.68 m/s, 78° | - | - |
| 1778018102 | 17.22° C | 66% | 1014.6 hPa | 0 mm | 2.68 m/s, 77° | - | - |
| 1778017753 | 17.22° C | 67% | 1014.7 hPa | 0 mm | 2.68 m/s, 60° | - | - |
| 1778017453 | 17.22° C | 68% | 1014.7 hPa | 0 mm | 3.13 m/s, 59° | - | - |
| 1778017153 | 17.22° C | 67% | 1014.8 hPa | 0 mm | 3.13 m/s, 73° | - | - |
| 1778016853 | 17.78° C | 65% | 1014.8 hPa | 0 mm | 4.02 m/s, 65° | - | - |
| 1778016555 | 18.33° C | 62% | 1014.8 hPa | 0 mm | 4.02 m/s, 59° | - | - |
| 1778016147 | 18.89° C | 59% | 1014.8 hPa | 0 mm | 0.89 m/s, 348° | - | - |
| 1778015846 | 18.89° C | 58% | 1014.8 hPa | 0 mm | 0.89 m/s, 324° | - | - |
| 1778015548 | 18.89° C | 57% | 1014.8 hPa | 0 mm | 0.89 m/s, 23° | - | - |
| 1778014946 | 18.33° C | 58% | 1014.7 hPa | 0 mm | 0 m/s | - | - |
| 1778014648 | 18.33° C | 58% | 1014.7 hPa | 0 mm | 0 m/s | - | - |
| 1778014346 | 18.33° C | 59% | 1014.7 hPa | 0 mm | 0 m/s | - | - |
| 1778014047 | 18.89° C | 58% | 1014.7 hPa | 0 mm | 1.34 m/s, 62° | - | - |
| 1778013748 | 18.89° C | 59% | 1014.8 hPa | 0 mm | 0.89 m/s, 71° | - | - |
| 1778013447 | 18.89° C | 60% | 1014.7 hPa | 0 mm | 0.45 m/s, 119° | - | - |
| 1778013147 | 18.33° C | 60% | 1014.7 hPa | 0 mm | 0 m/s | - | - |
| 1778012847 | 18.33° C | 61% | 1014.8 hPa | 0 mm | 1.79 m/s, 82° | - | - |
| 1778012548 | 18.33° C | 60% | 1014.8 hPa | 0 mm | 1.79 m/s, 73° | - | - |
* Rain latest hour (hover to see other rain measurements)
** Current wind speed in m/s (hover to see current wind gust speed)